createdAt,value
2022-10-13T07:27:54.938Z,4.00
2022-10-13T07:32:58.154Z,11.30
2022-10-13T07:38:02.256Z,3.20
2022-10-13T07:43:08.389Z,2.60
2022-10-13T07:48:11.597Z,2.50
2022-10-13T07:53:14.842Z,7.30
2022-10-13T07:58:18.200Z,12.40
2022-10-13T08:03:21.461Z,6.00
2022-10-13T08:08:24.783Z,4.60
2022-10-13T08:13:28.048Z,5.80
2022-10-13T08:18:31.548Z,7.90
2022-10-13T08:23:34.879Z,1.50
2022-10-13T08:28:38.918Z,5.90
2022-10-13T08:33:42.313Z,4.30
2022-10-13T08:38:46.315Z,3.20
2022-10-13T08:44:39.565Z,1.10
2022-10-13T08:49:20.817Z,1.90
2022-10-13T08:54:25.343Z,0.60
2022-10-13T08:59:28.742Z,4.30
2022-10-13T09:04:36.568Z,3.10
2022-10-13T09:09:39.881Z,2.00
2022-10-13T09:14:43.145Z,1.20
2022-10-13T09:20:04.045Z,2.30
2022-10-13T09:25:07.308Z,10.00
2022-10-13T09:30:32.229Z,3.10
2022-10-13T09:35:41.939Z,3.70
2022-10-13T09:41:07.370Z,2.40
2022-10-13T09:46:18.132Z,5.20
2022-10-13T09:51:31.186Z,3.70
2022-10-13T09:56:42.789Z,1.60
2022-10-13T10:01:47.925Z,2.60
2022-10-13T10:06:51.173Z,1.30
2022-10-13T10:11:58.345Z,4.80
2022-10-13T10:17:28.858Z,3.30
2022-10-13T10:22:44.489Z,6.10
2022-10-13T10:28:48.161Z,2.40
2022-10-13T10:33:57.633Z,2.90
2022-10-13T10:39:28.313Z,1.80
2022-10-13T10:44:43.551Z,6.10
2022-10-13T10:49:49.777Z,2.50
2022-10-13T10:55:04.158Z,3.10
2022-10-13T11:00:17.995Z,2.20
2022-10-13T11:05:21.500Z,2.10
2022-10-13T11:10:26.697Z,1.60
2022-10-13T11:15:44.930Z,8.60
2022-10-13T11:20:54.792Z,12.20
2022-10-13T11:26:20.726Z,1.60
2022-10-13T11:31:33.730Z,0.70
2022-10-13T11:36:47.420Z,5.40
2022-10-13T11:42:11.910Z,2.20
2022-10-13T11:47:28.378Z,1.00
2022-10-13T11:52:51.376Z,1.20
2022-10-13T11:58:14.038Z,0.80
2022-10-13T12:03:28.599Z,3.70
2022-10-13T12:08:36.633Z,4.70
2022-10-13T12:13:39.901Z,1.00
2022-10-13T12:18:43.117Z,0.30
2022-10-13T12:23:51.613Z,0.60
2022-10-13T12:29:03.265Z,4.30
2022-10-13T12:34:36.621Z,2.00
2022-10-13T12:39:40.125Z,0.40
2022-10-13T12:44:43.953Z,2.10
2022-10-13T12:49:50.401Z,2.20
2022-10-13T12:54:58.017Z,0.90
2022-10-13T13:00:03.137Z,1.00
2022-10-13T13:05:37.010Z,0.70
2022-10-13T13:10:54.548Z,0.60
2022-10-13T13:16:19.504Z,6.30
2022-10-13T13:21:23.067Z,0.90
2022-10-13T13:26:26.791Z,0.80
2022-10-13T13:31:30.571Z,3.50
2022-10-13T13:36:34.088Z,1.20
2022-10-13T13:41:37.428Z,8.00
2022-10-13T13:46:40.751Z,1.50
2022-10-13T13:51:44.056Z,5.20
2022-10-13T13:56:47.461Z,1.20
2022-10-13T14:01:52.137Z,0.50
2022-10-13T14:06:58.580Z,6.30
2022-10-13T14:12:04.864Z,2.10
2022-10-13T14:17:08.674Z,1.50
2022-10-13T14:22:15.246Z,3.70
2022-10-13T14:27:21.617Z,3.70
2022-10-13T14:32:29.011Z,1.20
2022-10-13T14:37:34.587Z,1.00
2022-10-13T14:42:40.579Z,0.80
2022-10-13T14:47:53.249Z,0.50
2022-10-13T14:52:57.968Z,10.40
2022-10-13T14:58:04.183Z,1.90
2022-10-13T15:03:07.638Z,3.00
2022-10-13T15:08:10.983Z,3.50
2022-10-13T15:13:14.368Z,1.00
2022-10-13T15:18:29.006Z,0.50
2022-10-13T15:23:37.364Z,0.40
2022-10-13T15:28:42.990Z,0.60
2022-10-13T15:33:49.556Z,1.30
2022-10-13T15:38:55.309Z,0.90
2022-10-13T15:43:59.376Z,3.20
2022-10-13T15:49:09.927Z,0.80
2022-10-13T15:54:15.466Z,7.20
2022-10-13T15:59:29.406Z,1.60
2022-10-13T16:04:37.266Z,1.00
2022-10-13T16:09:43.024Z,0.60
2022-10-13T16:14:50.257Z,2.70
2022-10-13T16:20:01.202Z,5.80
2022-10-13T16:25:04.796Z,1.20
2022-10-13T16:30:14.981Z,3.70
2022-10-13T16:35:23.563Z,1.80
2022-10-13T16:40:39.355Z,2.90
2022-10-13T16:46:15.962Z,1.20
2022-10-13T16:51:55.786Z,2.50
2022-10-13T16:57:26.478Z,3.70
2022-10-13T17:02:50.772Z,4.80
2022-10-13T17:08:16.375Z,5.30
2022-10-13T17:13:27.432Z,5.60
2022-10-13T17:18:34.235Z,2.20
2022-10-13T17:29:14.072Z,1.40
2022-10-13T17:39:40.012Z,3.60
2022-10-13T17:44:50.108Z,2.20
2022-10-13T17:50:08.125Z,5.50
2022-10-13T17:55:11.564Z,3.70
2022-10-13T18:00:16.272Z,3.10
2022-10-13T18:05:38.703Z,3.70
2022-10-13T18:11:07.210Z,0.70
2022-10-13T18:16:15.524Z,4.30
2022-10-13T18:21:24.930Z,2.60
2022-10-13T18:26:37.082Z,3.70
2022-10-13T18:31:41.861Z,5.00
2022-10-13T18:36:58.980Z,3.30
2022-10-13T18:42:02.372Z,3.80
2022-10-13T18:47:13.162Z,2.70
2022-10-13T18:52:19.797Z,7.00
2022-10-13T18:57:27.357Z,4.60
2022-10-13T19:02:31.158Z,13.30
2022-10-13T19:07:38.903Z,6.00
2022-10-13T19:12:43.400Z,8.00
2022-10-13T19:17:49.964Z,15.30
2022-10-13T19:22:57.169Z,7.90
2022-10-13T19:28:01.307Z,10.60
2022-10-13T19:33:07.030Z,7.20
2022-10-13T19:38:17.504Z,6.20
2022-10-13T19:43:21.808Z,19.60
2022-10-13T19:48:25.687Z,36.70
2022-10-13T19:53:31.565Z,78.40
2022-10-13T19:58:39.461Z,42.70
2022-10-13T20:03:42.766Z,9.70
2022-10-13T20:08:46.781Z,13.70
2022-10-13T20:13:53.470Z,11.30
2022-10-13T20:18:59.493Z,7.70
2022-10-13T20:24:06.839Z,5.70
2022-10-13T20:29:12.178Z,3.90
2022-10-13T20:34:16.868Z,5.90
2022-10-13T20:39:20.829Z,12.80
2022-10-13T20:44:31.761Z,11.30
2022-10-13T20:49:41.281Z,13.90
2022-10-13T20:54:44.839Z,6.80
2022-10-13T20:59:49.354Z,5.60
2022-10-13T21:04:59.011Z,3.40
2022-10-13T21:10:02.550Z,29.60
2022-10-13T21:15:06.267Z,5.10
2022-10-13T21:20:17.688Z,5.10
2022-10-13T21:25:22.372Z,10.50
2022-10-13T21:30:27.553Z,4.50
2022-10-13T21:35:30.820Z,4.40
2022-10-13T21:40:34.250Z,7.20
2022-10-13T21:45:38.582Z,7.20
2022-10-13T21:50:50.555Z,12.70
2022-10-13T21:56:11.577Z,9.10
2022-10-13T22:01:28.465Z,5.10
2022-10-13T22:06:36.920Z,6.20
2022-10-13T22:11:43.364Z,4.50
2022-10-13T22:16:52.157Z,11.50
2022-10-13T22:22:00.799Z,3.80
2022-10-13T22:27:06.831Z,5.60
2022-10-13T22:32:16.608Z,5.70
2022-10-13T22:37:35.292Z,8.00
2022-10-13T22:42:51.999Z,4.70
2022-10-13T22:47:55.393Z,3.40
2022-10-13T22:52:58.695Z,7.50
2022-10-13T22:58:02.068Z,6.70
2022-10-13T23:03:06.274Z,11.00
2022-10-13T23:08:09.970Z,5.10
2022-10-13T23:13:14.726Z,15.80
2022-10-13T23:18:19.298Z,7.90
2022-10-13T23:23:42.479Z,4.60
2022-10-13T23:28:48.911Z,3.60
2022-10-13T23:33:52.889Z,7.50
2022-10-13T23:39:00.969Z,5.40
2022-10-13T23:44:06.783Z,4.30
2022-10-13T23:49:13.211Z,3.90
2022-10-13T23:54:16.600Z,7.20
2022-10-13T23:59:21.907Z,4.10
